createdAt,value
2022-08-19T00:02:22.386Z,47.60
2022-08-19T00:04:53.768Z,47.33
2022-08-19T00:07:23.429Z,47.53
2022-08-19T00:09:52.995Z,47.37
2022-08-19T00:12:28.839Z,47.69
2022-08-19T00:14:58.381Z,47.53
2022-08-19T00:17:27.927Z,47.13
2022-08-19T00:19:57.482Z,47.43
2022-08-19T00:22:28.107Z,47.40
2022-08-19T00:24:57.738Z,47.31
2022-08-19T00:27:34.428Z,47.42
2022-08-19T00:30:04.586Z,47.58
2022-08-19T00:32:35.378Z,47.80
2022-08-19T00:35:05.006Z,47.65
2022-08-19T00:37:36.030Z,47.77
2022-08-19T00:40:06.602Z,47.99
2022-08-19T00:42:39.636Z,48.16
2022-08-19T00:45:13.738Z,48.01
2022-08-19T00:47:43.299Z,48.11
2022-08-19T00:50:12.999Z,48.28
2022-08-19T00:52:46.570Z,48.13
2022-08-19T00:55:17.252Z,48.00
2022-08-19T00:57:51.857Z,48.06
2022-08-19T01:00:22.147Z,48.31
2022-08-19T01:02:51.945Z,48.38
2022-08-19T01:05:23.818Z,48.73
2022-08-19T01:07:54.041Z,48.71
2022-08-19T01:10:25.414Z,48.76
2022-08-19T01:12:58.107Z,48.52
2022-08-19T01:15:28.448Z,48.96
2022-08-19T01:17:57.968Z,48.89
2022-08-19T01:20:27.660Z,48.84
2022-08-19T01:23:00.842Z,49.00
2022-08-19T01:25:33.366Z,48.96
2022-08-19T01:28:10.815Z,49.05
2022-08-19T01:30:44.427Z,48.82
2022-08-19T01:33:14.136Z,48.86
2022-08-19T01:35:44.282Z,49.11
2022-08-19T01:38:23.601Z,48.77
2022-08-19T01:40:54.102Z,48.90
2022-08-19T01:43:23.807Z,49.51
2022-08-19T01:45:53.821Z,49.60
2022-08-19T01:48:24.715Z,49.67
2022-08-19T01:50:54.011Z,49.47
2022-08-19T01:53:26.706Z,49.21
2022-08-19T01:56:03.244Z,49.11
2022-08-19T01:58:34.133Z,49.26
2022-08-19T02:01:03.484Z,49.08
2022-08-19T02:03:33.155Z,49.19
2022-08-19T02:06:03.695Z,49.11
2022-08-19T02:08:36.959Z,49.02
2022-08-19T02:11:06.802Z,48.81
2022-08-19T02:13:36.447Z,49.58
2022-08-19T02:16:06.808Z,49.57
2022-08-19T02:18:36.593Z,50.19
2022-08-19T02:21:07.304Z,50.56
2022-08-19T02:23:39.773Z,50.96
2022-08-19T02:26:09.617Z,51.02
2022-08-19T02:28:39.184Z,51.17
2022-08-19T02:31:12.834Z,51.21
2022-08-19T02:33:42.739Z,51.17
2022-08-19T02:36:13.113Z,51.58
2022-08-19T02:38:54.825Z,51.81
2022-08-19T02:41:26.930Z,51.44
2022-08-19T02:44:20.417Z,51.66
2022-08-19T02:46:48.231Z,51.39
2022-08-19T02:49:18.242Z,51.28
2022-08-19T02:51:48.383Z,51.47
2022-08-19T02:54:20.592Z,51.83
2022-08-19T02:56:50.215Z,51.51
2022-08-19T02:59:20.145Z,51.56
2022-08-19T03:01:52.516Z,52.10
2022-08-19T03:04:24.233Z,51.92
2022-08-19T03:06:53.851Z,52.12
2022-08-19T03:09:26.031Z,52.08
2022-08-19T03:11:55.606Z,52.26
2022-08-19T03:14:25.189Z,52.20
2022-08-19T03:16:55.399Z,52.21
2022-08-19T03:19:25.046Z,52.13
2022-08-19T03:21:54.717Z,52.06
2022-08-19T03:24:27.044Z,52.14
2022-08-19T03:26:59.588Z,52.21
2022-08-19T03:29:31.175Z,51.89
2022-08-19T03:32:01.880Z,51.82
2022-08-19T03:34:32.447Z,51.91
2022-08-19T03:37:02.678Z,52.02
2022-08-19T03:39:34.939Z,51.77
2022-08-19T03:42:29.307Z,51.65
2022-08-19T03:44:54.410Z,52.05
2022-08-19T03:47:24.000Z,51.91
2022-08-19T03:49:53.581Z,51.63
2022-08-19T03:52:23.234Z,51.67
2022-08-19T03:54:55.433Z,51.90
2022-08-19T03:57:32.020Z,52.06
2022-08-19T04:00:13.179Z,51.83
2022-08-19T04:02:56.470Z,51.99
2022-08-19T04:05:31.254Z,52.27
2022-08-19T04:08:01.648Z,52.86
2022-08-19T04:10:34.018Z,52.52
2022-08-19T04:13:03.596Z,52.42
2022-08-19T04:15:36.817Z,52.32
2022-08-19T04:18:08.774Z,52.61
2022-08-19T04:20:43.047Z,52.29
2022-08-19T04:23:12.568Z,52.33
2022-08-19T04:25:46.738Z,52.46
2022-08-19T04:28:16.399Z,52.37
2022-08-19T04:30:47.241Z,52.90
2022-08-19T04:33:17.461Z,52.80
2022-08-19T04:35:55.667Z,52.59
2022-08-19T04:38:25.681Z,52.67
2022-08-19T04:41:10.358Z,52.86
2022-08-19T04:43:41.227Z,52.87
2022-08-19T04:46:11.712Z,52.64
2022-08-19T04:48:58.222Z,52.83
2022-08-19T04:51:27.855Z,52.90
2022-08-19T04:53:57.843Z,53.07
2022-08-19T04:56:30.104Z,53.25
2022-08-19T04:59:04.017Z,52.79
2022-08-19T05:01:34.073Z,53.03
2022-08-19T05:04:05.685Z,52.79
2022-08-19T05:06:36.049Z,53.26
2022-08-19T05:09:06.077Z,53.05
2022-08-19T05:11:40.187Z,53.28
2022-08-19T05:14:09.978Z,53.35
2022-08-19T05:16:39.597Z,53.31
2022-08-19T05:19:21.660Z,52.95
2022-08-19T05:22:03.711Z,52.58
2022-08-19T05:24:35.276Z,52.96
2022-08-19T05:27:08.717Z,52.97
2022-08-19T05:29:38.438Z,53.09
2022-08-19T05:32:09.367Z,52.78
2022-08-19T05:34:39.208Z,52.46
2022-08-19T05:37:09.452Z,52.73
2022-08-19T05:39:41.559Z,52.97
2022-08-19T05:42:15.377Z,52.79
2022-08-19T05:44:46.705Z,53.00
2022-08-19T05:47:16.854Z,52.54
2022-08-19T05:49:46.718Z,52.71
2022-08-19T05:52:18.810Z,52.50
2022-08-19T05:54:51.083Z,52.31
2022-08-19T05:57:23.831Z,52.82
2022-08-19T05:59:58.278Z,52.22
2022-08-19T06:02:28.503Z,52.44
2022-08-19T06:04:58.300Z,52.37
2022-08-19T06:07:28.516Z,52.06
2022-08-19T06:09:59.951Z,52.03
2022-08-19T06:12:35.386Z,51.33
2022-08-19T06:15:06.214Z,50.90
2022-08-19T06:17:36.263Z,50.62
2022-08-19T06:20:07.204Z,50.32
2022-08-19T06:22:40.436Z,49.52
2022-08-19T06:25:11.171Z,49.05
2022-08-19T06:28:14.610Z,48.03
2022-08-19T06:30:33.538Z,48.24
2022-08-19T06:33:03.698Z,48.04
2022-08-19T06:35:33.553Z,47.51
2022-08-19T06:38:04.397Z,47.00
2022-08-19T06:40:34.180Z,45.83
2022-08-19T06:43:08.606Z,46.05
2022-08-19T06:45:40.652Z,46.05
2022-08-19T06:48:10.578Z,45.31
2022-08-19T06:50:41.388Z,45.08
2022-08-19T06:53:10.981Z,44.53
2022-08-19T06:55:42.188Z,45.25
2022-08-19T06:58:15.234Z,45.26
2022-08-19T07:00:44.845Z,44.84
2022-08-19T07:03:14.678Z,43.67
2022-08-19T07:05:45.600Z,42.98
2022-08-19T07:08:16.044Z,43.14
2022-08-19T07:10:47.647Z,43.10
2022-08-19T07:13:20.382Z,43.07
2022-08-19T07:15:50.536Z,42.22
2022-08-19T07:18:22.601Z,42.06
2022-08-19T07:20:52.230Z,42.87
2022-08-19T07:23:22.528Z,42.00
2022-08-19T07:25:53.468Z,41.94
2022-08-19T07:28:25.706Z,41.54
2022-08-19T07:30:57.440Z,41.65
2022-08-19T07:33:28.055Z,41.58
2022-08-19T07:35:57.697Z,42.34
2022-08-19T07:38:27.269Z,42.47
2022-08-19T07:40:57.225Z,42.59
2022-08-19T07:43:34.948Z,42.88
2022-08-19T07:46:04.962Z,42.42
2022-08-19T07:48:34.886Z,42.57
2022-08-19T07:51:05.696Z,42.66
2022-08-19T07:53:39.566Z,42.93
2022-08-19T07:56:10.253Z,42.70
2022-08-19T07:58:45.375Z,42.55
2022-08-19T08:01:16.541Z,42.23
2022-08-19T08:03:58.656Z,43.00
2022-08-19T08:06:40.676Z,42.98
2022-08-19T08:11:54.407Z,42.39
2022-08-19T08:14:35.065Z,42.22
2022-08-19T08:17:04.786Z,42.01
2022-08-19T08:19:42.112Z,41.94
2022-08-19T08:22:32.147Z,41.89
2022-08-19T08:25:05.248Z,40.79
2022-08-19T08:27:40.618Z,40.34
2022-08-19T08:30:13.786Z,40.00
2022-08-19T08:32:44.044Z,39.50
2022-08-19T08:35:17.620Z,39.74
2022-08-19T08:37:49.183Z,39.25
2022-08-19T08:40:22.748Z,38.19
2022-08-19T08:42:55.009Z,38.01
2022-08-19T08:45:27.706Z,37.88
2022-08-19T08:48:04.352Z,37.55
2022-08-19T08:50:53.421Z,37.06
2022-08-19T08:53:26.407Z,36.70
2022-08-19T08:55:59.598Z,35.89
2022-08-19T08:58:31.772Z,35.65
2022-08-19T09:01:04.017Z,35.32
2022-08-19T09:03:33.652Z,35.28
2022-08-19T09:06:12.037Z,35.06
2022-08-19T09:08:44.617Z,34.74
2022-08-19T09:11:16.293Z,34.44
2022-08-19T09:14:29.228Z,34.15
2022-08-19T09:17:04.486Z,34.59
2022-08-19T09:19:34.216Z,34.59
2022-08-19T09:22:03.803Z,34.30
2022-08-19T09:24:33.419Z,33.86
2022-08-19T09:27:15.998Z,34.15
2022-08-19T09:29:49.567Z,33.54
2022-08-19T09:32:26.148Z,33.76
2022-08-19T09:34:59.070Z,32.78
2022-08-19T09:37:28.800Z,31.75
2022-08-19T09:39:59.380Z,32.50
2022-08-19T09:42:30.549Z,31.99
2022-08-19T09:45:05.364Z,30.74
2022-08-19T09:47:42.676Z,31.28
2022-08-19T09:50:16.612Z,30.33
2022-08-19T09:52:55.068Z,29.36
2022-08-19T09:55:32.070Z,29.51
2022-08-19T09:58:04.093Z,29.92
2022-08-19T10:00:34.561Z,29.17
2022-08-19T10:03:07.115Z,28.93
2022-08-19T10:05:55.240Z,28.55
2022-08-19T10:08:26.755Z,27.73
2022-08-19T10:10:56.822Z,27.73
2022-08-19T10:13:32.993Z,27.06
2022-08-19T10:16:07.513Z,25.86
2022-08-19T10:18:40.851Z,25.23
2022-08-19T10:21:15.492Z,23.30
2022-08-19T10:23:47.343Z,24.19
2022-08-19T10:26:18.043Z,26.06
2022-08-19T10:28:48.724Z,26.52
2022-08-19T10:31:21.349Z,23.94
2022-08-19T10:34:26.789Z,24.37
2022-08-19T10:37:00.924Z,25.69
2022-08-19T10:39:41.175Z,24.40
2022-08-19T10:42:14.769Z,25.63
2022-08-19T10:44:44.738Z,25.14
2022-08-19T10:47:17.209Z,25.33
2022-08-19T10:50:07.598Z,25.35
2022-08-19T10:52:49.689Z,25.65
2022-08-19T10:55:32.774Z,26.24
2022-08-19T10:58:03.123Z,27.40
2022-08-19T11:00:32.907Z,26.73
2022-08-19T11:03:02.612Z,26.66
2022-08-19T11:05:39.701Z,26.39
2022-08-19T11:08:22.137Z,25.39
2022-08-19T11:10:52.283Z,26.76
2022-08-19T11:13:21.949Z,25.40
2022-08-19T11:15:51.594Z,25.46
2022-08-19T11:18:21.195Z,24.15
2022-08-19T11:20:53.752Z,25.03
2022-08-19T11:23:23.325Z,26.06
2022-08-19T11:25:54.201Z,26.39
2022-08-19T11:28:23.848Z,26.38
2022-08-19T11:30:53.348Z,25.36
2022-08-19T11:33:22.927Z,26.06
2022-08-19T11:35:55.089Z,25.92
2022-08-19T11:38:24.712Z,26.05
2022-08-19T11:41:01.240Z,25.99
2022-08-19T11:43:36.801Z,26.09
2022-08-19T11:46:08.473Z,26.59
2022-08-19T11:48:38.126Z,25.58
2022-08-19T11:51:14.262Z,24.94
2022-08-19T11:53:43.894Z,25.36
2022-08-19T11:56:13.648Z,25.54
2022-08-19T11:58:43.397Z,25.70
2022-08-19T12:01:13.328Z,25.99
2022-08-19T12:03:43.102Z,25.96
2022-08-19T12:06:17.755Z,25.17
2022-08-19T12:08:48.523Z,25.81
2022-08-19T12:11:18.090Z,25.30
2022-08-19T12:13:48.843Z,26.38
2022-08-19T12:16:20.246Z,25.06
2022-08-19T12:18:55.036Z,25.75
2022-08-19T12:21:29.580Z,24.91
2022-08-19T12:23:59.627Z,24.90
2022-08-19T12:26:29.730Z,24.94
2022-08-19T12:29:00.519Z,24.82
2022-08-19T12:31:30.249Z,25.16
2022-08-19T12:33:59.828Z,24.11
2022-08-19T12:36:31.995Z,24.45
2022-08-19T12:39:02.517Z,24.76
2022-08-19T12:41:32.093Z,24.39
2022-08-19T12:44:01.902Z,24.24
2022-08-19T12:46:32.532Z,24.58
2022-08-19T12:49:05.152Z,24.15
2022-08-19T12:51:56.703Z,24.31
2022-08-19T12:54:26.248Z,24.75
2022-08-19T12:56:55.826Z,23.81
2022-08-19T12:59:25.427Z,23.59
2022-08-19T13:01:55.063Z,24.05
2022-08-19T13:04:24.674Z,23.51
2022-08-19T13:06:56.879Z,24.05
2022-08-19T13:09:26.499Z,23.53
2022-08-19T13:11:57.869Z,23.99
2022-08-19T13:14:27.435Z,23.82
2022-08-19T13:16:57.003Z,23.98
2022-08-19T13:19:28.946Z,24.06
2022-08-19T13:22:02.433Z,24.84
2022-08-19T13:24:33.920Z,25.06
2022-08-19T13:27:06.769Z,24.67
2022-08-19T13:29:48.965Z,24.31
2022-08-19T13:32:31.152Z,24.84
2022-08-19T13:35:02.675Z,24.57
2022-08-19T13:37:47.112Z,24.63
2022-08-19T13:40:19.596Z,24.14
2022-08-19T13:42:50.275Z,24.12
2022-08-19T13:45:20.624Z,24.52
2022-08-19T13:47:52.043Z,23.68
2022-08-19T13:50:24.087Z,24.41
2022-08-19T13:52:56.190Z,23.79
2022-08-19T13:55:25.980Z,23.92
2022-08-19T13:57:55.820Z,24.27
2022-08-19T14:00:27.544Z,24.80
2022-08-19T14:02:58.600Z,23.59
2022-08-19T14:05:29.307Z,24.05
2022-08-19T14:08:01.692Z,23.90
2022-08-19T14:10:32.684Z,23.87
2022-08-19T14:13:03.214Z,24.14
2022-08-19T14:15:32.858Z,23.49
2022-08-19T14:18:03.665Z,23.38
2022-08-19T14:20:33.292Z,23.57
2022-08-19T14:23:06.224Z,24.09
2022-08-19T14:25:36.112Z,24.24
2022-08-19T14:28:06.064Z,24.02
2022-08-19T14:30:38.729Z,23.52
2022-08-19T14:33:09.560Z,23.26
2022-08-19T14:35:39.534Z,23.34
2022-08-19T14:38:18.714Z,23.35
2022-08-19T14:40:58.759Z,23.32
2022-08-19T14:43:28.421Z,22.97
2022-08-19T14:45:58.116Z,23.46
2022-08-19T14:48:29.136Z,23.67
2022-08-19T14:50:58.844Z,24.03
2022-08-19T14:53:31.055Z,24.39
2022-08-19T14:56:00.614Z,24.43
2022-08-19T14:58:30.567Z,24.97
2022-08-19T15:01:01.716Z,24.86
2022-08-19T15:03:32.649Z,25.15
2022-08-19T15:06:03.340Z,24.96
2022-08-19T15:08:36.254Z,25.36
2022-08-19T15:11:05.930Z,25.14
2022-08-19T15:13:35.555Z,25.44
2022-08-19T15:16:05.598Z,25.67
2022-08-19T15:18:36.036Z,24.79
2022-08-19T15:21:05.484Z,24.76
2022-08-19T15:23:37.697Z,25.27
2022-08-19T15:26:11.573Z,25.20
2022-08-19T15:28:45.772Z,24.70
2022-08-19T15:31:17.089Z,25.22
2022-08-19T15:33:57.146Z,25.71
2022-08-19T15:36:27.149Z,25.29
2022-08-19T15:39:00.171Z,25.27
2022-08-19T15:41:30.968Z,25.24
2022-08-19T15:44:03.258Z,25.02
2022-08-19T15:46:34.499Z,25.56
2022-08-19T15:49:04.107Z,25.51
2022-08-19T15:51:35.542Z,25.10
2022-08-19T15:54:08.584Z,25.49
2022-08-19T15:56:57.988Z,25.37
2022-08-19T15:59:46.939Z,25.41
2022-08-19T16:02:32.094Z,25.56
2022-08-19T16:05:14.315Z,25.92
2022-08-19T16:07:43.876Z,26.43
2022-08-19T16:10:26.204Z,26.21
2022-08-19T16:12:57.398Z,25.92
2022-08-19T16:15:27.946Z,25.91
2022-08-19T16:17:57.947Z,26.35
2022-08-19T16:20:28.051Z,26.25
2022-08-19T16:22:58.640Z,26.52
2022-08-19T16:25:30.882Z,26.26
2022-08-19T16:28:06.561Z,26.31
2022-08-19T16:30:37.712Z,26.42
2022-08-19T16:33:13.973Z,26.68
2022-08-19T16:36:08.768Z,26.93
2022-08-19T16:38:44.015Z,27.17
2022-08-19T16:41:18.669Z,26.91
2022-08-19T16:43:58.010Z,27.05
2022-08-19T16:50:59.637Z,27.10
2022-08-19T16:53:47.158Z,27.21
2022-08-19T16:56:29.363Z,27.30
2022-08-19T16:59:55.735Z,27.17
2022-08-19T17:02:29.632Z,27.15
2022-08-19T17:05:00.789Z,27.25
2022-08-19T17:07:33.698Z,27.31
2022-08-19T17:10:03.472Z,27.32
2022-08-19T17:12:37.825Z,27.63
2022-08-19T17:15:11.577Z,27.15
2022-08-19T17:17:42.047Z,27.53
2022-08-19T17:20:15.628Z,27.83
2022-08-19T17:22:45.238Z,28.07
2022-08-19T17:25:18.512Z,28.07
2022-08-19T17:27:51.653Z,28.34
2022-08-19T17:30:22.356Z,28.34
2022-08-19T17:32:52.024Z,28.94
2022-08-19T17:35:30.072Z,28.86
2022-08-19T17:38:02.873Z,29.08
2022-08-19T17:40:42.335Z,28.77
2022-08-19T17:43:15.812Z,28.93
2022-08-19T17:45:48.246Z,29.09
2022-08-19T17:48:18.137Z,29.21
2022-08-19T17:50:52.488Z,28.92
2022-08-19T17:53:24.758Z,28.54
2022-08-19T17:56:13.422Z,28.42
2022-08-19T17:59:00.049Z,28.91
2022-08-19T18:01:51.922Z,29.00
2022-08-19T18:04:20.476Z,29.09
2022-08-19T18:06:53.656Z,29.28
2022-08-19T18:09:25.958Z,29.02
2022-08-19T18:11:57.114Z,29.42
2022-08-19T18:14:33.736Z,29.07
2022-08-19T18:17:06.184Z,29.18
2022-08-19T18:19:41.223Z,29.45
2022-08-19T18:22:13.321Z,29.54
2022-08-19T18:24:45.866Z,29.65
2022-08-19T18:27:18.787Z,29.82
2022-08-19T18:29:54.157Z,29.81
2022-08-19T18:32:25.531Z,30.05
2022-08-19T18:34:56.287Z,29.94
2022-08-19T18:37:29.193Z,30.15
2022-08-19T18:40:11.280Z,30.39
2022-08-19T18:42:57.570Z,30.24
2022-08-19T18:45:43.671Z,30.30
2022-08-19T18:48:27.418Z,30.52
2022-08-19T18:50:58.750Z,30.87
2022-08-19T18:53:28.488Z,30.87
2022-08-19T18:55:58.127Z,31.22
2022-08-19T18:58:33.890Z,31.26
2022-08-19T19:01:11.645Z,31.46
2022-08-19T19:03:42.917Z,31.25
2022-08-19T19:06:12.509Z,31.33
2022-08-19T19:08:42.121Z,31.45
2022-08-19T19:11:11.709Z,31.46
2022-08-19T19:13:41.922Z,31.78
2022-08-19T19:16:14.224Z,31.89
2022-08-19T19:18:44.694Z,32.00
2022-08-19T19:21:42.046Z,32.14
2022-08-19T19:24:14.416Z,32.25
2022-08-19T19:26:51.517Z,32.51
2022-08-19T19:29:24.214Z,32.59
2022-08-19T19:31:56.569Z,32.77
2022-08-19T19:34:29.573Z,32.67
2022-08-19T19:36:59.822Z,32.72
2022-08-19T19:39:45.109Z,33.11
2022-08-19T19:42:21.007Z,33.42
2022-08-19T19:44:51.597Z,33.46
2022-08-19T19:47:28.196Z,33.07
2022-08-19T19:50:15.299Z,33.53
2022-08-19T19:52:45.750Z,33.43
2022-08-19T19:55:18.415Z,33.80
2022-08-19T19:58:08.051Z,33.98
2022-08-19T20:00:40.212Z,34.08
2022-08-19T20:03:12.570Z,34.10
2022-08-19T20:05:42.248Z,34.46
2022-08-19T20:08:24.281Z,34.52
2022-08-19T20:10:53.939Z,34.74
2022-08-19T20:13:23.553Z,35.19
2022-08-19T20:15:55.119Z,35.12
2022-08-19T20:18:29.217Z,35.45
2022-08-19T20:21:00.254Z,35.14
2022-08-19T20:23:31.224Z,35.45
2022-08-19T20:26:01.786Z,35.84
2022-08-19T20:28:33.467Z,36.01
2022-08-19T20:31:03.520Z,35.72
2022-08-19T20:33:40.329Z,36.04
2022-08-19T20:36:10.595Z,36.04
2022-08-19T20:38:40.823Z,36.08
2022-08-19T20:41:21.955Z,36.49
2022-08-19T20:43:51.840Z,36.42
2022-08-19T20:46:21.631Z,36.76
2022-08-19T20:48:53.821Z,36.70
2022-08-19T20:51:24.096Z,36.95
2022-08-19T20:53:53.698Z,37.03
2022-08-19T20:56:23.395Z,36.98
2022-08-19T20:58:57.967Z,37.29
2022-08-19T21:01:29.516Z,37.48
2022-08-19T21:04:04.821Z,37.30
2022-08-19T21:06:34.440Z,37.60
2022-08-19T21:09:04.046Z,37.57
2022-08-19T21:11:34.406Z,37.46
2022-08-19T21:14:03.991Z,37.46
2022-08-19T21:16:34.088Z,37.75
2022-08-19T21:19:08.559Z,37.38
2022-08-19T21:21:51.554Z,37.64
2022-08-19T21:24:31.424Z,37.42
2022-08-19T21:27:05.783Z,38.08
2022-08-19T21:29:37.470Z,37.91
2022-08-19T21:32:07.703Z,38.03
2022-08-19T21:34:41.389Z,38.06
2022-08-19T21:37:18.995Z,38.04
2022-08-19T21:39:58.356Z,37.81
2022-08-19T21:42:27.966Z,38.14
2022-08-19T21:45:01.068Z,38.03
2022-08-19T21:47:30.699Z,38.55
2022-08-19T21:50:07.477Z,38.56
2022-08-19T21:52:37.175Z,38.09
2022-08-19T21:55:07.962Z,38.31
2022-08-19T21:57:41.481Z,38.52
2022-08-19T22:00:15.637Z,38.75
2022-08-19T22:02:45.718Z,38.57
2022-08-19T22:05:20.547Z,38.87
2022-08-19T22:07:50.203Z,38.99
2022-08-19T22:10:22.313Z,39.00
2022-08-19T22:12:51.879Z,38.98
2022-08-19T22:15:26.228Z,39.16
2022-08-19T22:17:57.140Z,39.32
2022-08-19T22:20:36.238Z,39.14
2022-08-19T22:23:09.628Z,39.49
2022-08-19T22:25:40.580Z,39.55
2022-08-19T22:28:13.984Z,39.34
2022-08-19T22:30:44.290Z,39.72
2022-08-19T22:33:16.597Z,40.11
2022-08-19T22:35:49.284Z,40.03
2022-08-19T22:38:19.439Z,40.14
2022-08-19T22:40:50.131Z,40.29
2022-08-19T22:43:20.982Z,40.37
2022-08-19T22:45:51.742Z,40.30
2022-08-19T22:48:22.325Z,40.21
2022-08-19T22:51:06.887Z,40.50
2022-08-19T22:53:36.767Z,40.46
2022-08-19T22:56:06.800Z,40.31
2022-08-19T22:58:37.532Z,40.35
2022-08-19T23:01:10.923Z,40.59
2022-08-19T23:03:42.613Z,40.60
2022-08-19T23:06:15.183Z,40.69
2022-08-19T23:08:44.959Z,40.88
2022-08-19T23:11:14.553Z,40.79
2022-08-19T23:13:44.235Z,41.03
2022-08-19T23:16:13.811Z,41.26
2022-08-19T23:18:45.466Z,41.58
2022-08-19T23:21:17.664Z,41.26
2022-08-19T23:23:49.693Z,41.39
2022-08-19T23:26:19.261Z,41.46
2022-08-19T23:29:01.346Z,41.59
2022-08-19T23:31:30.980Z,41.71
2022-08-19T23:34:00.574Z,41.81
2022-08-19T23:36:32.794Z,41.90
2022-08-19T23:39:02.484Z,42.10
2022-08-19T23:41:32.147Z,42.13
2022-08-19T23:44:02.340Z,42.13
2022-08-19T23:46:34.450Z,42.30
2022-08-19T23:49:10.623Z,42.25
2022-08-19T23:51:42.843Z,42.34
2022-08-19T23:54:12.409Z,42.21
2022-08-19T23:56:41.992Z,42.26
2022-08-19T23:59:15.542Z,42.54
